Time;durP1;ratioP1;P1;durP2;ratioP2;P2;SDS_P1;SDS_P2;PMS_P1;PMS_P2;Temp;Humidity;BMP_temperature;BMP_pressure;BME280_temperature;BME280_humidity;BME280_pressure;Samples;Min_cycle;Max_cycle;Signal;HPM_P1;HPM_P2
2021/11/17 07:03:20;;;;;;;37.42;17.12;;;;;;;-0.51;100.00;99594.06;4672122;74;22841;-81
2021/11/17 07:09:21;;;;;;;39.20;19.73;;;;;;;-0.52;100.00;99591.10;4587544;75;21530;-81
2021/11/17 07:15:27;;;;;;;36.42;19.07;;;;;;;-0.79;100.00;99586.88;4587133;75;21024;-82
2021/11/17 07:21:30;;;;;;;44.27;23.77;;;;;;;-0.77;100.00;99586.59;4409964;78;21025;-81
2021/11/17 07:27:32;;;;;;;60.65;29.92;;;;;;;-0.70;100.00;99592.41;4486442;78;21046;-82
2021/11/17 07:33:33;;;;;;;48.48;22.27;;;;;;;-0.35;100.00;99599.52;4492978;78;21511;-82
2021/11/17 07:39:34;;;;;;;43.02;21.55;;;;;;;-0.35;100.00;99599.52;4481627;78;21480;-82
2021/11/17 07:45:38;;;;;;;40.33;20.03;;;;;;;-0.37;100.00;99593.62;4480395;78;21033;-81
2021/11/17 07:51:41;;;;;;;41.10;21.90;;;;;;;-0.31;100.00;99597.02;4466315;78;21580;-81
2021/11/17 07:57:44;;;;;;;33.63;19.25;;;;;;;-0.44;100.00;99582.39;4490980;78;21606;-82
2021/11/17 08:03:48;;;;;;;49.50;22.90;;;;;;;-0.44;100.00;99582.39;4410900;78;21060;-81
2021/11/17 08:09:50;;;;;;;44.42;22.32;;;;;;;-0.21;100.00;99601.75;4429573;79;21083;-82
2021/11/17 08:15:52;;;;;;;56.40;26.07;;;;;;;-0.21;100.00;99601.75;4442239;79;21033;-81
2021/11/17 08:21:53;;;;;;;48.48;24.18;;;;;;;0.05;100.00;99594.09;4430716;79;21060;-81
2021/11/17 08:27:55;;;;;;;50.05;25.68;;;;;;;0.15;100.00;99589.92;4428266;79;21531;-81
2021/11/17 08:33:57;;;;;;;50.98;23.95;;;;;;;0.16;100.00;99590.73;4411520;78;20990;-81
2021/11/17 08:40:02;;;;;;;46.30;25.05;;;;;;;0.32;100.00;99588.03;4394242;78;21561;-81
2021/11/17 08:46:04;;;;;;;47.15;25.45;;;;;;;0.53;100.00;99590.13;4469573;77;21064;-80
2021/11/17 08:52:08;;;;;;;51.95;27.55;;;;;;;0.67;100.00;99593.66;4478069;77;21579;-81
2021/11/17 08:58:14;;;;;;;50.48;25.88;;;;;;;0.62;100.00;99592.39;4488513;77;21628;-81
2021/11/17 09:04:16;;;;;;;64.32;28.77;;;;;;;0.69;100.00;99596.06;4573400;77;20964;-81
2021/11/17 09:10:24;;;;;;;55.43;28.60;;;;;;;0.90;100.00;99598.63;4582995;77;20965;-81
2021/11/17 09:16:30;;;;;;;57.45;30.65;;;;;;;1.12;100.00;99593.38;4577580;77;21413;-81
2021/11/17 09:22:29;;;;;;;70.17;34.85;;;;;;;1.38;100.00;99594.47;4568622;77;21003;-81
2021/11/17 09:28:33;;;;;;;63.70;33.30;;;;;;;1.69;100.00;99587.91;4576566;77;21020;-81
2021/11/17 09:34:36;;;;;;;60.90;33.23;;;;;;;2.09;100.00;99581.61;4584751;77;21007;-81
2021/11/17 09:40:58;;;;;;;61.28;31.93;;;;;;;2.71;100.00;99575.25;4575642;77;21046;-81
2021/11/17 09:47:04;;;;;;;53.08;31.82;;;;;;;3.17;100.00;99575.08;4568609;77;20977;-82
2021/11/17 09:53:18;;;;;;;51.42;30.90;;;;;;;3.44;100.00;99583.53;4572885;77;20947;-81
2021/11/17 09:59:37;;;;;;;47.93;29.23;;;;;;;4.24;100.00;99559.98;4567683;77;21031;-80
2021/11/17 10:18:44;;;;;;;51.18;31.40;;;;;;;6.02;100.00;99547.65;4556722;77;20974;-82
2021/11/17 10:24:51;;;;;;;38.37;22.60;;;;;;;6.46;99.99;99538.55;4565596;77;21546;-82
2021/11/17 10:31:13;;;;;;;50.78;30.40;;;;;;;6.99;99.88;99523.49;4558049;76;20979;-81
2021/11/17 10:37:38;;;;;;;47.48;30.70;;;;;;;7.37;99.01;99531.59;4557421;76;20997;-81
2021/11/17 10:43:58;;;;;;;59.65;32.75;;;;;;;7.31;97.89;99522.63;4558356;77;21006;-82
2021/11/17 10:50:26;;;;;;;46.28;28.75;;;;;;;7.41;97.68;99523.52;4556559;76;21073;-82
2021/11/17 10:56:29;;;;;;;43.42;28.45;;;;;;;7.38;97.29;99516.03;4558679;76;21006;-81
2021/11/17 11:02:31;;;;;;;45.73;27.22;;;;;;;7.30;97.23;99518.30;4550038;77;21098;-82
2021/11/17 11:08:38;;;;;;;49.65;29.25;;;;;;;7.35;97.38;99511.27;4499826;77;21043;-82
2021/11/17 11:14:59;;;;;;;47.75;28.90;;;;;;;7.56;97.02;99510.00;4544555;77;21119;-81
2021/11/17 11:21:03;;;;;;;46.98;29.42;;;;;;;7.51;96.47;99503.44;4540430;77;21009;-82
2021/11/17 11:27:13;;;;;;;46.48;29.37;;;;;;;7.56;95.78;99492.28;4539933;77;21013;-82
2021/11/17 11:33:28;;;;;;;43.58;28.15;;;;;;;7.57;95.58;99491.73;4544842;77;21087;-83
2021/11/17 11:39:34;;;;;;;44.33;29.00;;;;;;;7.67;94.99;99479.01;4537156;77;21053;-82
2021/11/17 11:45:44;;;;;;;49.33;31.53;;;;;;;7.76;95.61;99478.30;4541521;77;20993;-82
2021/11/17 11:51:53;;;;;;;41.95;26.87;;;;;;;7.78;94.86;99469.22;4542216;77;21722;-81
2021/11/17 11:58:25;;;;;;;44.30;28.05;;;;;;;7.78;94.61;99474.67;4544158;77;21052;-82
2021/11/17 12:04:26;;;;;;;45.63;26.23;;;;;;;7.78;94.08;99463.77;4548639;77;21029;-82
2021/11/17 12:10:36;;;;;;;47.13;25.05;;;;;;;7.70;94.28;99473.67;4556997;77;21106;-82
2021/11/17 12:16:50;;;;;;;35.25;25.17;;;;;;;7.59;93.45;99471.20;4568193;77;21042;-82
2021/11/17 12:22:56;;;;;;;41.68;25.08;;;;;;;7.71;93.64;99478.53;4565037;77;21515;-82
2021/11/17 12:29:15;;;;;;;41.40;25.60;;;;;;;7.77;92.97;99483.97;4557052;77;21036;-81
2021/11/17 12:35:28;;;;;;;44.48;25.97;;;;;;;7.77;92.90;99476.59;4556390;77;20980;-82
2021/11/17 12:41:34;;;;;;;48.85;26.45;;;;;;;7.80;92.33;99467.72;4567122;77;21056;-82
2021/11/17 12:47:53;;;;;;;39.15;24.32;;;;;;;7.76;92.06;99470.13;4556490;77;21049;-82
2021/11/17 12:54:05;;;;;;;41.95;23.38;;;;;;;7.73;91.61;99466.73;4543257;76;21695;-82
2021/11/17 13:00:24;;;;;;;39.65;24.63;;;;;;;7.73;91.71;99464.00;4555580;76;21032;-82
2021/11/17 13:06:46;;;;;;;39.15;25.00;;;;;;;7.66;91.31;99461.05;4546688;77;21061;-82
2021/11/17 13:12:47;;;;;;;47.90;27.58;;;;;;;7.55;91.47;99468.91;4553229;77;21077;-82
2021/11/17 13:19:02;;;;;;;46.20;27.35;;;;;;;7.53;91.66;99475.86;4562244;77;20995;-82
2021/11/17 13:25:20;;;;;;;45.85;26.15;;;;;;;7.52;91.49;99461.43;4554229;77;21118;-82
2021/11/17 13:31:37;;;;;;;40.88;25.45;;;;;;;7.51;91.46;99455.77;4551853;77;21072;-82
2021/11/17 13:37:41;;;;;;;43.25;24.70;;;;;;;7.46;90.60;99457.36;4554274;77;21615;-82
2021/11/17 13:43:42;;;;;;;43.85;26.82;;;;;;;7.39;90.48;99463.94;4546291;77;21079;-82
2021/11/17 13:49:48;;;;;;;47.03;25.40;;;;;;;7.31;90.22;99459.98;4552681;77;20999;-81
2021/11/17 13:56:01;;;;;;;41.87;24.50;;;;;;;7.25;90.13;99462.13;4553459;75;21044;-83
2021/11/17 14:02:03;;;;;;;45.50;26.85;;;;;;;7.19;90.14;99473.03;4557413;77;21335;-82
2021/11/17 14:08:07;;;;;;;45.45;25.55;;;;;;;7.17;89.71;99474.52;4554155;77;21001;-83
2021/11/17 14:14:08;;;;;;;47.60;29.35;;;;;;;7.18;89.46;99474.18;4567384;77;21002;-82
2021/11/17 14:20:10;;;;;;;40.95;24.98;;;;;;;7.16;89.22;99472.91;4581383;77;21543;-83
2021/11/17 14:26:15;;;;;;;51.95;28.67;;;;;;;7.02;89.51;99463.73;4566139;77;21013;-83
2021/11/17 14:32:30;;;;;;;48.40;28.25;;;;;;;6.91;89.29;99461.23;4573027;77;20982;-83
2021/11/17 14:38:33;;;;;;;48.48;28.32;;;;;;;6.83;89.09;99461.36;4564214;77;20987;-82
2021/11/17 14:44:35;;;;;;;48.20;28.17;;;;;;;6.78;89.32;99446.60;4575154;77;21522;-82
2021/11/17 14:50:37;;;;;;;55.40;29.90;;;;;;;6.78;89.35;99437.08;4575287;77;21024;-82
2021/11/17 14:56:39;;;;;;;52.37;28.47;;;;;;;6.77;89.30;99437.64;4571514;77;21595;-83
2021/11/17 15:02:42;;;;;;;56.40;31.25;;;;;;;6.71;89.28;99437.64;4572237;77;21026;-83
2021/11/17 15:08:44;;;;;;;58.25;32.95;;;;;;;6.69;89.21;99439.13;4569239;77;21082;-82
2021/11/17 15:14:46;;;;;;;68.22;38.42;;;;;;;6.66;89.12;99441.12;4568624;77;21055;-82
2021/11/17 15:20:49;;;;;;;74.10;39.38;;;;;;;6.62;89.11;99442.39;4571097;77;20971;-83
2021/11/17 15:26:56;;;;;;;78.20;40.35;;;;;;;6.58;89.08;99436.02;4567610;77;21518;-82
2021/11/17 15:32:58;;;;;;;80.12;41.10;;;;;;;6.49;89.22;99444.85;4583376;77;21015;-82
2021/11/17 15:38:59;;;;;;;72.35;39.15;;;;;;;6.47;89.24;99449.05;4574774;77;21413;-82
2021/11/17 15:45:00;;;;;;;78.80;38.98;;;;;;;6.42;89.04;99444.63;4570311;76;21049;-83
2021/11/17 15:51:13;;;;;;;65.52;35.50;;;;;;;6.38;89.21;99447.22;4567127;77;20997;-82
2021/11/17 15:57:15;;;;;;;78.57;39.05;;;;;;;6.34;89.29;99446.28;4571553;77;21100;-82
2021/11/17 16:03:17;;;;;;;73.30;40.08;;;;;;;6.32;89.45;99442.32;4567945;77;21023;-82
2021/11/17 16:09:20;;;;;;;72.72;38.58;;;;;;;6.24;89.51;99437.77;4571317;77;21038;-82
2021/11/17 16:15:22;;;;;;;70.97;37.83;;;;;;;6.14;89.33;99442.25;4567345;76;20996;-82
2021/11/17 16:21:23;;;;;;;71.10;37.45;;;;;;;6.07;89.54;99442.81;4569021;77;21034;-82
2021/11/17 16:27:26;;;;;;;75.70;39.95;;;;;;;6.11;89.86;99443.72;4570462;77;20990;-82
2021/11/17 16:33:27;;;;;;;91.45;43.30;;;;;;;6.10;89.83;99444.06;4568690;77;21475;-82
2021/11/17 16:39:28;;;;;;;93.65;48.08;;;;;;;6.05;90.04;99442.34;4571111;77;21038;-82
2021/11/17 16:45:31;;;;;;;80.28;42.03;;;;;;;6.05;90.03;99435.55;4566688;77;20975;-83
2021/11/17 16:51:33;;;;;;;86.78;43.92;;;;;;;6.03;90.18;99446.52;4573495;77;21046;-81
2021/11/17 16:57:34;;;;;;;119.02;54.45;;;;;;;6.00;90.41;99456.69;4566898;77;21067;-82
2021/11/17 17:03:36;;;;;;;168.82;68.55;;;;;;;5.97;90.26;99454.09;4559909;76;21010;-82
2021/11/17 17:09:38;;;;;;;131.90;61.13;;;;;;;5.92;90.25;99462.44;4554249;77;21087;-82
2021/11/17 17:15:44;;;;;;;198.53;89.58;;;;;;;5.88;90.46;99464.24;4554380;77;21570;-82
2021/11/17 17:21:45;;;;;;;77.27;41.98;;;;;;;5.87;90.42;99465.94;4562158;77;21063;-82
2021/11/17 17:27:47;;;;;;;92.85;49.23;;;;;;;5.79;90.57;99463.50;4432853;76;9999959;-82
2021/11/17 17:33:50;;;;;;;103.05;52.73;;;;;;;5.79;90.82;99468.93;4560457;76;21025;-82
2021/11/17 17:39:52;;;;;;;96.32;45.08;;;;;;;5.78;90.88;99471.39;4567097;77;21018;-82
2021/11/17 17:45:54;;;;;;;110.22;59.30;;;;;;;5.78;90.94;99473.34;4559390;77;21073;-82
2021/11/17 17:51:55;;;;;;;76.85;42.88;;;;;;;5.75;90.92;99469.89;4562973;77;21015;-82
2021/11/17 17:57:57;;;;;;;107.05;52.70;;;;;;;5.76;91.38;99479.07;4553718;77;20983;-81
2021/11/17 18:03:58;;;;;;;92.27;49.45;;;;;;;5.77;91.33;99480.68;4536561;77;22151;-82
2021/11/17 18:09:59;;;;;;;101.50;51.75;;;;;;;5.78;91.38;99485.56;4549861;76;21723;-82
2021/11/17 18:16:02;;;;;;;87.95;49.08;;;;;;;5.72;91.30;99475.44;4553302;76;20985;-82
2021/11/17 18:22:04;;;;;;;105.90;54.93;;;;;;;5.64;91.48;99480.92;4550735;77;22236;-82
2021/11/17 18:28:07;;;;;;;101.07;53.68;;;;;;;5.62;91.52;99480.48;4549015;76;21497;-83
2021/11/17 18:34:12;;;;;;;104.87;53.83;;;;;;;5.60;91.69;99488.95;4549465;76;20967;-82
2021/11/17 18:40:17;;;;;;;95.85;50.75;;;;;;;5.60;91.56;99488.16;4540022;77;21434;-82
2021/11/17 18:46:18;;;;;;;94.62;48.40;;;;;;;5.65;91.88;99494.20;4549500;76;21958;-83
2021/11/17 18:52:20;;;;;;;107.35;55.35;;;;;;;5.68;91.48;99504.95;4552433;76;20997;-82
2021/11/17 18:58:23;;;;;;;107.75;53.63;;;;;;;5.74;91.29;99505.80;4545224;76;21547;-82
2021/11/17 19:04:24;;;;;;;101.75;51.50;;;;;;;5.79;91.17;99512.95;4549485;76;21024;-82
2021/11/17 19:10:31;;;;;;;97.05;50.15;;;;;;;5.79;91.17;99519.19;4552358;76;21915;-83
2021/11/17 19:16:32;;;;;;;90.00;45.05;;;;;;;5.81;91.08;99522.34;4554213;76;20961;-82
2021/11/17 19:22:35;;;;;;;86.85;44.73;;;;;;;5.81;91.08;99527.78;4548740;76;21049;-82
2021/11/17 19:28:36;;;;;;;95.95;46.73;;;;;;;5.81;91.11;99540.59;4553733;76;20971;-82
2021/11/17 19:34:40;;;;;;;90.85;47.88;;;;;;;5.80;91.08;99534.35;4553747;76;20974;-82
2021/11/17 19:40:47;;;;;;;86.95;46.85;;;;;;;5.80;91.06;99532.19;4543453;76;20980;-82
2021/11/17 19:46:49;;;;;;;101.35;51.58;;;;;;;5.77;91.10;99549.15;4555770;76;20969;-83
2021/11/17 19:52:50;;;;;;;94.87;50.33;;;;;;;5.74;91.11;99555.25;4552877;76;21584;-83
2021/11/17 19:58:52;;;;;;;111.10;53.80;;;;;;;5.70;91.17;99553.74;4550377;76;21385;-83
2021/11/17 20:04:54;;;;;;;109.45;55.52;;;;;;;5.66;91.18;99554.73;4553228;76;21013;-82
2021/11/17 20:10:56;;;;;;;113.97;55.73;;;;;;;5.62;91.46;99559.24;4564596;76;21512;-83
2021/11/17 20:16:59;;;;;;;111.30;57.40;;;;;;;5.61;91.55;99564.42;4552051;76;21489;-82
2021/11/17 20:23:01;;;;;;;107.65;56.58;;;;;;;5.57;91.66;99552.09;4549468;76;21898;-82
2021/11/17 20:29:05;;;;;;;113.72;56.85;;;;;;;5.54;91.66;99553.30;4549977;76;21032;-82
2021/11/17 20:35:07;;;;;;;118.25;57.48;;;;;;;5.52;91.76;99554.17;4555283;77;21566;-83
2021/11/17 20:41:11;;;;;;;107.80;54.08;;;;;;;5.49;91.65;99559.71;4545400;76;20993;-82
2021/11/17 20:47:13;;;;;;;105.72;54.85;;;;;;;5.46;91.70;99556.84;4554596;76;21000;-82
2021/11/17 20:53:15;;;;;;;103.02;52.62;;;;;;;5.43;91.85;99562.94;4563771;76;20982;-83
2021/11/17 20:59:17;;;;;;;101.47;49.05;;;;;;;5.41;92.01;99560.55;4550993;77;21019;-82
2021/11/17 21:05:19;;;;;;;94.83;47.73;;;;;;;5.39;91.92;99560.07;4554165;76;21073;-82
2021/11/17 21:11:30;;;;;;;87.85;45.95;;;;;;;5.39;92.16;99564.14;4556988;76;21618;-83
2021/11/17 21:17:32;;;;;;;76.22;39.45;;;;;;;5.41;92.25;99565.98;4561711;76;21023;-82
2021/11/17 21:23:34;;;;;;;75.17;38.13;;;;;;;5.40;92.12;99574.45;4555922;76;21529;-82
2021/11/17 21:29:38;;;;;;;65.90;33.30;;;;;;;5.39;92.24;99574.20;4561143;76;20992;-82
2021/11/17 21:35:41;;;;;;;67.42;31.62;;;;;;;5.39;91.95;99576.91;4558510;77;21078;-82
2021/11/17 21:41:42;;;;;;;66.07;31.15;;;;;;;5.35;92.22;99579.51;4565820;77;21018;-82
2021/11/17 21:47:44;;;;;;;57.50;28.12;;;;;;;5.35;92.12;99586.30;4553210;76;20987;-82
2021/11/17 21:53:46;;;;;;;52.95;26.40;;;;;;;5.35;92.09;99593.63;4552839;77;20998;-82
2021/11/17 21:59:49;;;;;;;52.13;25.72;;;;;;;5.36;91.97;99600.64;4563549;77;21068;-82
2021/11/17 22:05:53;;;;;;;50.50;24.85;;;;;;;5.34;91.81;99597.48;4550416;77;21010;-82
2021/11/17 22:11:57;;;;;;;44.67;21.82;;;;;;;5.33;91.69;99604.81;4562630;77;21610;-83
2021/11/17 22:17:59;;;;;;;41.02;21.45;;;;;;;5.31;91.49;99602.98;4566148;77;21030;-82
2021/11/17 22:24:02;;;;;;;39.27;19.95;;;;;;;5.31;91.58;99601.62;4549774;77;22175;-83
2021/11/17 22:30:09;;;;;;;43.92;19.98;;;;;;;5.32;91.47;99607.86;4561368;77;20979;-83
2021/11/17 22:36:12;;;;;;;;;;;;;;;5.32;91.27;99605.14;4560318;77;21019;-82
2021/11/17 22:42:14;;;;;;;34.10;18.23;;;;;;;5.33;91.12;99613.52;4554055;77;20511;-82
2021/11/17 22:48:15;;;;;;;31.93;16.07;;;;;;;5.32;91.01;99619.52;4565078;77;21595;-83
2021/11/17 22:54:17;;;;;;;31.70;16.40;;;;;;;5.34;90.87;99625.41;4552736;77;21035;-83
2021/11/17 23:00:38;;;;;;;29.80;15.03;;;;;;;5.35;90.85;99618.06;4562365;77;20997;-82
2021/11/17 23:06:41;;;;;;;29.27;15.58;;;;;;;5.36;90.71;99611.50;4570502;77;21022;-84
2021/11/17 23:12:43;;;;;;;34.33;17.30;;;;;;;5.37;90.70;99613.11;4568264;77;21016;-85
2021/11/17 23:18:46;;;;;;;38.42;20.27;;;;;;;5.35;90.47;99609.38;4572793;77;21082;-82
2021/11/17 23:24:48;;;;;;;37.35;18.20;;;;;;;5.35;90.60;99608.02;4539435;77;21042;-82
2021/11/17 23:30:53;;;;;;;38.38;19.23;;;;;;;5.34;90.65;99620.56;4516587;76;21024;-84
2021/11/17 23:36:54;;;;;;;34.25;16.77;;;;;;;5.34;90.57;99623.27;4493858;76;21565;-83
2021/11/17 23:42:56;;;;;;;37.05;18.15;;;;;;;5.31;90.64;99630.70;4501146;77;21025;-83
2021/11/17 23:49:09;;;;;;;36.65;17.87;;;;;;;5.29;90.60;99626.16;4506141;77;20984;-82
2021/11/17 23:55:14;;;;;;;33.23;16.57;;;;;;;5.27;90.65;99621.61;4503991;76;21017;-82
